Time;durP1;ratioP1;P1;durP2;ratioP2;P2;SDS_P1;SDS_P2;PMS_P1;PMS_P2;Temp;Humidity;BMP_temperature;BMP_pressure;BME280_temperature;BME280_humidity;BME280_pressure;Samples;Min_cycle;Max_cycle;Signal;HPM_P1;HPM_P2
2022/02/05 00:00:34;;;;;;;1.90;0.80;;;20.70;54.10;;;;;;5001661;28;20076;-71
2022/02/05 00:03:16;;;;;;;0.98;0.55;;;20.70;54.10;;;;;;5003535;28;20026;-71
2022/02/05 00:42:56;;;;;;;1.10;0.50;;;20.80;54.40;;;;;;5034439;28;20029;-72
2022/02/05 00:45:22;;;;;;;0.80;0.70;;;20.80;54.40;;;;;;5035052;28;20017;-71
2022/02/05 00:47:48;;;;;;;2.08;0.70;;;20.80;54.30;;;;;;5035081;28;20029;-72
2022/02/05 00:50:20;;;;;;;1.75;0.70;;;20.80;54.30;;;;;;5017475;28;20108;-71
2022/02/05 00:52:57;;;;;;;0.88;0.60;;;20.80;54.40;;;;;;5034630;28;20048;-72
2022/02/05 00:55:26;;;;;;;2.50;0.77;;;20.80;54.40;;;;;;5003980;28;20108;-71
2022/02/05 00:57:52;;;;;;;2.83;0.80;;;20.80;54.40;;;;;;5017634;28;20017;-71
2022/02/05 01:00:18;;;;;;;2.50;0.60;;;20.80;54.40;;;;;;5034564;28;20525;-71
2022/02/05 01:02:44;;;;;;;1.00;0.85;;;20.80;54.40;;;;;;5016028;28;20076;-71
2022/02/05 01:05:10;;;;;;;0.88;0.60;;;20.80;54.40;;;;;;5001403;28;20018;-71
2022/02/05 01:07:36;;;;;;;2.20;1.08;;;20.80;54.40;;;;;;5017130;28;20025;-71
2022/02/05 01:10:02;;;;;;;1.13;0.70;;;20.80;54.40;;;;;;5000549;28;20487;-71
2022/02/05 01:12:30;;;;;;;2.25;0.80;;;20.80;54.40;;;;;;5017074;28;20017;-72
2022/02/05 01:14:58;;;;;;;1.55;0.75;;;20.80;54.50;;;;;;5034175;28;20132;-71
2022/02/05 01:17:31;;;;;;;1.33;0.80;;;20.80;54.50;;;;;;5000473;28;20030;-72
2022/02/05 01:22:43;;;;;;;1.25;0.90;;;20.80;54.50;;;;;;5033677;28;20044;-71
2022/02/05 01:25:10;;;;;;;1.48;0.60;;;20.80;54.50;;;;;;5016957;28;20171;-71
2022/02/05 01:27:51;;;;;;;0.95;0.50;;;20.80;54.50;;;;;;5034483;28;20010;-71
2022/02/05 01:30:30;;;;;;;1.48;0.77;;;20.80;54.80;;;;;;5017910;28;20430;-72
2022/02/05 02:12:05;;;;;;;2.47;0.50;;;20.70;54.70;;;;;;5014307;28;20075;-72
2022/02/05 02:14:51;;;;;;;1.65;0.90;;;20.70;54.70;;;;;;5031477;28;20041;-72
2022/02/05 02:20:20;;;;;;;0.93;0.50;;;20.70;54.70;;;;;;5013246;28;20018;-71
2022/02/05 02:23:15;;;;;;;;;;;20.70;54.70;;;;;;5019245;28;20029;-72
2022/02/05 02:26:00;;;;;;;0.65;0.63;;;20.70;54.70;;;;;;5031352;28;19905;-71
2022/02/05 02:28:41;;;;;;;0.70;0.57;;;20.60;54.90;;;;;;5031199;28;20018;-71
2022/02/05 02:31:11;;;;;;;1.17;0.77;;;20.70;55.00;;;;;;5013954;28;20021;-72
2022/02/05 02:33:43;;;;;;;1.75;0.43;;;20.70;55.00;;;;;;4998443;28;20025;-71
2022/02/05 02:36:15;;;;;;;1.17;0.60;;;20.70;54.90;;;;;;5014308;28;20037;-71
2022/02/05 02:38:47;;;;;;;0.93;0.50;;;20.70;54.90;;;;;;5014132;28;20518;-71
2022/02/05 02:41:20;;;;;;;;;;;20.70;54.90;;;;;;5013978;28;20514;-72
2022/02/05 02:43:45;;;;;;;1.35;0.60;;;20.60;54.80;;;;;;5014024;28;19909;-71
2022/02/05 02:46:11;;;;;;;0.85;0.52;;;20.60;55.00;;;;;;5030933;28;20395;-71
2022/02/05 02:48:42;;;;;;;0.75;0.47;;;20.60;55.00;;;;;;5012902;28;20025;-71
2022/02/05 02:58:50;;;;;;;2.13;0.65;;;20.70;54.90;;;;;;4997492;28;20041;-71
2022/02/05 03:01:20;;;;;;;1.30;0.60;;;20.70;54.90;;;;;;5013454;28;20025;-71
2022/02/05 03:03:46;;;;;;;1.08;0.50;;;20.70;54.90;;;;;;5031024;28;20022;-71
2022/02/05 03:06:12;;;;;;;0.55;0.55;;;20.70;54.90;;;;;;4996660;28;20021;-71
2022/02/05 03:08:38;;;;;;;0.60;0.60;;;20.70;54.90;;;;;;4996522;28;20101;-72
2022/02/05 03:11:03;;;;;;;0.85;0.50;;;20.70;54.90;;;;;;5012502;28;20108;-71
2022/02/05 03:13:29;;;;;;;1.13;0.40;;;20.70;54.90;;;;;;5030764;28;20038;-71
2022/02/05 03:15:55;;;;;;;2.08;0.55;;;20.70;54.90;;;;;;5030146;28;20053;-71
2022/02/05 03:21:13;;;;;;;1.17;0.45;;;20.70;54.90;;;;;;5013778;28;20065;-72
2022/02/05 03:23:38;;;;;;;5.63;0.47;;;20.70;55.00;;;;;;5012434;28;20084;-72
2022/02/05 03:26:04;;;;;;;1.30;0.40;;;20.70;55.00;;;;;;5030206;28;20041;-72
2022/02/05 03:28:32;;;;;;;2.83;0.40;;;20.70;55.00;;;;;;5012790;28;20032;-72
2022/02/05 03:30:58;;;;;;;1.48;0.50;;;20.70;55.00;;;;;;5012453;28;20352;-71
2022/02/05 03:33:23;;;;;;;1.55;0.60;;;20.70;55.00;;;;;;5030319;28;20559;-72
2022/02/05 03:35:49;;;;;;;1.23;0.68;;;20.70;55.00;;;;;;5030372;28;20557;-71
2022/02/05 03:38:15;;;;;;;2.35;0.73;;;20.70;55.00;;;;;;5012553;28;20033;-72
2022/02/05 03:40:40;;;;;;;1.60;0.80;;;20.70;55.00;;;;;;5011967;28;20021;-72
2022/02/05 03:43:06;;;;;;;0.60;0.60;;;20.70;55.00;;;;;;5012072;28;20021;-72
2022/02/05 03:45:33;;;;;;;1.38;0.63;;;20.70;55.00;;;;;;5012534;28;20083;-71
2022/02/05 03:47:59;;;;;;;1.00;0.50;;;20.70;55.00;;;;;;4996272;28;20014;-71
2022/02/05 03:50:24;;;;;;;1.08;0.70;;;20.70;55.00;;;;;;5030221;28;20032;-71
2022/02/05 03:52:50;;;;;;;0.70;0.52;;;20.70;55.00;;;;;;5011249;28;20104;-71
2022/02/05 03:55:16;;;;;;;0.70;0.70;;;20.70;55.00;;;;;;4995522;28;20033;-72
2022/02/05 03:57:43;;;;;;;2.72;0.70;;;20.70;55.00;;;;;;5029929;28;20033;-71
2022/02/05 04:00:09;;;;;;;1.40;0.60;;;20.70;55.10;;;;;;5029994;28;20028;-71
2022/02/05 04:02:35;;;;;;;0.63;0.50;;;20.70;55.00;;;;;;5012091;28;20021;-72
2022/02/05 04:05:01;;;;;;;0.68;0.60;;;20.70;55.10;;;;;;5029694;28;20372;-72
2022/02/05 04:07:29;;;;;;;1.42;0.55;;;20.70;55.00;;;;;;5011929;28;20024;-72
2022/02/05 04:09:59;;;;;;;1.00;0.52;;;20.70;55.10;;;;;;5012002;28;20045;-72
2022/02/05 04:17:53;;;;;;;1.05;0.50;;;20.70;55.10;;;;;;5029371;28;20483;-72
2022/02/05 04:20:19;;;;;;;2.78;0.63;;;20.70;55.20;;;;;;5029877;28;20029;-71
2022/02/05 04:22:44;;;;;;;1.60;0.65;;;20.70;55.10;;;;;;5027301;28;20403;-71
2022/02/05 04:25:11;;;;;;;0.77;0.45;;;20.70;55.10;;;;;;5030810;28;20018;-71
2022/02/05 04:27:36;;;;;;;0.52;0.40;;;20.70;55.10;;;;;;5013976;28;20022;-71
2022/02/05 04:30:03;;;;;;;1.08;0.60;;;20.70;55.10;;;;;;5013650;28;20372;-71
2022/02/05 04:32:29;;;;;;;1.33;0.50;;;20.70;55.10;;;;;;5013935;28;20053;-71
2022/02/05 04:34:54;;;;;;;0.95;0.60;;;20.70;55.10;;;;;;5031669;28;20063;-72
2022/02/05 04:37:23;;;;;;;1.30;0.52;;;20.70;55.10;;;;;;5031436;28;20065;-72
2022/02/05 04:39:59;;;;;;;1.10;0.70;;;20.70;55.10;;;;;;5013724;28;20024;-72
2022/02/05 04:42:36;;;;;;;1.75;0.50;;;20.70;55.20;;;;;;5031508;28;20026;-72
2022/02/05 05:03:26;;;;;;;1.20;0.50;;;20.70;55.30;;;;;;5030917;28;20105;-72
2022/02/05 05:06:13;;;;;;;0.65;0.52;;;20.70;55.30;;;;;;5018000;28;20561;-71
2022/02/05 05:21:23;;;;;;;2.30;0.40;;;20.70;55.30;;;;;;5019583;28;20036;-71
2022/02/05 05:23:49;;;;;;;1.17;0.60;;;20.70;55.30;;;;;;5016961;28;20029;-71
2022/02/05 05:26:14;;;;;;;0.75;0.50;;;20.70;55.40;;;;;;4999420;28;20376;-71
2022/02/05 05:28:40;;;;;;;1.60;0.70;;;20.70;55.40;;;;;;5016922;28;20040;-71
2022/02/05 05:31:05;;;;;;;1.35;0.60;;;20.70;55.30;;;;;;5034452;28;20017;-71
2022/02/05 05:33:31;;;;;;;1.75;0.68;;;20.70;55.30;;;;;;5034578;28;20025;-71
2022/02/05 05:35:57;;;;;;;2.22;0.70;;;20.70;56.40;;;;;;5015898;28;20025;-71
2022/02/05 05:38:22;;;;;;;1.60;0.70;;;20.70;55.40;;;;;;5034462;28;20450;-71
2022/02/05 05:40:48;;;;;;;3.38;0.50;;;20.70;55.40;;;;;;5016774;28;20025;-71
2022/02/05 05:43:43;;;;;;;0.95;0.50;;;20.70;55.40;;;;;;5033603;28;20037;-72
2022/02/05 05:46:15;;;;;;;3.20;0.45;;;20.70;55.40;;;;;;5018777;28;20022;-72
2022/02/05 05:48:57;;;;;;;0.95;0.38;;;20.60;55.40;;;;;;5018637;28;20653;-71
2022/02/05 05:51:23;;;;;;;1.30;0.57;;;20.70;55.50;;;;;;5018700;28;20426;-71
2022/02/05 05:53:49;;;;;;;1.65;0.47;;;20.70;55.50;;;;;;5016731;28;20032;-71
2022/02/05 05:56:15;;;;;;;2.10;0.60;;;20.70;55.50;;;;;;5016525;28;20018;-72
2022/02/05 05:58:40;;;;;;;0.57;0.50;;;20.70;55.50;;;;;;5016732;28;20049;-71
2022/02/05 06:01:06;;;;;;;2.22;0.40;;;20.70;55.50;;;;;;5016509;28;20022;-72
2022/02/05 06:03:32;;;;;;;0.70;0.38;;;20.70;55.50;;;;;;5016120;28;20072;-71
2022/02/05 06:05:58;;;;;;;0.75;0.40;;;20.70;55.50;;;;;;5016112;28;20045;-71
2022/02/05 06:08:24;;;;;;;0.35;0.30;;;20.70;55.50;;;;;;5016286;28;20088;-71
2022/02/05 06:10:49;;;;;;;0.70;0.40;;;20.70;55.50;;;;;;5016592;28;20210;-71
2022/02/05 06:13:15;;;;;;;1.67;0.60;;;20.70;55.50;;;;;;5032853;28;20033;-71
2022/02/05 06:15:41;;;;;;;0.73;0.40;;;20.70;55.50;;;;;;5033356;28;20049;-71
2022/02/05 06:18:08;;;;;;;1.27;0.43;;;20.70;55.50;;;;;;5015621;28;20075;-72
2022/02/05 06:20:34;;;;;;;0.60;0.50;;;20.70;55.50;;;;;;5033310;28;20021;-71
2022/02/05 06:23:00;;;;;;;0.82;0.40;;;20.60;55.40;;;;;;5015737;28;20021;-71
2022/02/05 06:25:25;;;;;;;0.47;0.40;;;20.70;55.50;;;;;;5032806;28;20445;-71
2022/02/05 06:27:51;;;;;;;0.63;0.50;;;20.70;55.50;;;;;;5033590;28;20021;-71
2022/02/05 06:30:17;;;;;;;0.93;0.47;;;20.70;55.60;;;;;;5015725;28;20670;-71
2022/02/05 06:32:43;;;;;;;0.90;0.40;;;20.70;55.50;;;;;;5016228;28;20030;-71
2022/02/05 06:35:09;;;;;;;1.05;0.60;;;20.70;55.60;;;;;;5015586;28;20026;-71
2022/02/05 06:37:35;;;;;;;0.40;0.40;;;20.70;55.60;;;;;;5016264;28;20021;-71
2022/02/05 06:40:00;;;;;;;0.70;0.50;;;20.70;55.60;;;;;;5033200;28;20514;-71
2022/02/05 06:42:26;;;;;;;4.30;0.60;;;20.70;55.60;;;;;;5015157;28;20029;-71
2022/02/05 06:44:52;;;;;;;0.70;0.40;;;20.70;55.60;;;;;;5033417;28;20052;-71
2022/02/05 06:47:17;;;;;;;0.32;0.30;;;20.70;55.60;;;;;;5014706;28;20429;-71
2022/02/05 06:49:43;;;;;;;0.60;0.45;;;20.70;55.70;;;;;;4998559;28;20049;-72
2022/02/05 06:52:10;;;;;;;0.65;0.50;;;20.70;55.60;;;;;;5015335;28;20031;-71
2022/02/05 06:54:36;;;;;;;0.60;0.50;;;20.70;55.60;;;;;;5033265;28;20025;-71
2022/02/05 06:57:01;;;;;;;1.08;0.40;;;20.70;55.60;;;;;;5014982;28;20035;-71
2022/02/05 06:59:27;;;;;;;0.80;0.55;;;20.70;55.60;;;;;;4999051;28;20474;-71
2022/02/05 07:01:52;;;;;;;1.15;0.40;;;20.70;55.70;;;;;;5032948;28;20030;-72
2022/02/05 07:04:23;;;;;;;0.80;0.40;;;20.70;55.70;;;;;;5032321;28;20059;-71
2022/02/05 07:06:50;;;;;;;0.68;0.40;;;20.70;55.70;;;;;;5015746;28;20108;-71
2022/02/05 07:09:15;;;;;;;0.63;0.50;;;20.70;55.70;;;;;;5015009;28;20017;-71
2022/02/05 07:11:41;;;;;;;0.77;0.38;;;20.70;55.70;;;;;;4995745;28;20018;-71
2022/02/05 07:14:09;;;;;;;0.95;0.40;;;20.70;55.70;;;;;;5013046;28;20018;-71
2022/02/05 07:16:39;;;;;;;0.65;0.32;;;20.60;55.70;;;;;;5014112;28;20037;-71
2022/02/05 07:19:25;;;;;;;0.40;0.40;;;20.70;55.80;;;;;;5032539;28;20021;-71
2022/02/05 07:21:53;;;;;;;0.40;0.20;;;20.60;55.80;;;;;;5003106;28;20036;-71
2022/02/05 07:24:36;;;;;;;0.32;0.32;;;20.60;55.80;;;;;;5032513;28;20029;-71
2022/02/05 07:29:46;;;;;;;0.65;0.35;;;20.60;55.80;;;;;;4997762;28;20051;-71
2022/02/05 07:32:11;;;;;;;0.60;0.50;;;20.60;55.80;;;;;;5012690;28;20029;-71
2022/02/05 07:34:37;;;;;;;0.80;0.43;;;20.60;55.80;;;;;;4979027;28;20081;-71
2022/02/05 07:37:04;;;;;;;1.27;0.45;;;20.60;55.80;;;;;;5012983;28;20079;-71
2022/02/05 07:39:30;;;;;;;0.70;0.38;;;20.60;55.80;;;;;;4987189;28;20499;-71
2022/02/05 07:41:57;;;;;;;0.55;0.30;;;20.70;55.80;;;;;;4995713;28;20022;-71
2022/02/05 07:44:22;;;;;;;0.50;0.30;;;20.60;55.80;;;;;;4996155;28;20049;-72
2022/02/05 07:46:50;;;;;;;0.77;0.30;;;20.60;55.80;;;;;;5012404;28;20499;-71
2022/02/05 07:49:17;;;;;;;0.40;0.38;;;20.60;55.80;;;;;;4996622;28;20052;-72
2022/02/05 07:51:43;;;;;;;1.98;0.30;;;20.70;55.80;;;;;;5012364;28;20036;-71
2022/02/05 07:54:10;;;;;;;0.50;0.50;;;20.70;55.80;;;;;;5030119;28;20026;-71
2022/02/05 07:56:42;;;;;;;0.75;0.40;;;20.60;55.80;;;;;;5012440;28;20028;-72
2022/02/05 07:59:08;;;;;;;0.40;0.35;;;20.60;55.80;;;;;;4996765;28;20105;-72
2022/02/05 08:01:34;;;;;;;0.32;0.30;;;20.60;55.80;;;;;;5029607;28;20108;-72
2022/02/05 08:04:00;;;;;;;0.85;0.25;;;20.70;55.80;;;;;;4995843;28;20018;-72
2022/02/05 08:06:26;;;;;;;0.30;0.30;;;20.70;55.80;;;;;;5012348;28;20025;-72
2022/02/05 08:08:55;;;;;;;0.80;0.40;;;20.70;55.80;;;;;;5012062;28;20020;-72
2022/02/05 08:11:29;;;;;;;0.60;0.30;;;20.70;55.80;;;;;;5012629;28;20028;-72
2022/02/05 08:13:54;;;;;;;0.47;0.30;;;20.70;55.80;;;;;;5029842;28;20187;-72
2022/02/05 08:18:51;;;;;;;0.50;0.50;;;20.70;55.80;;;;;;5013223;28;20071;-72
2022/02/05 08:21:17;;;;;;;0.40;0.40;;;20.70;55.80;;;;;;4996000;28;20096;-72
2022/02/05 08:23:43;;;;;;;0.73;0.47;;;20.70;55.90;;;;;;5011766;28;20360;-72
2022/02/05 08:26:08;;;;;;;1.27;0.40;;;20.70;55.90;;;;;;4996002;28;20091;-72
2022/02/05 08:28:35;;;;;;;0.63;0.40;;;20.70;55.80;;;;;;5030031;28;20025;-72
2022/02/05 08:31:01;;;;;;;1.02;0.50;;;20.70;55.80;;;;;;5012090;28;20022;-72
2022/02/05 08:33:27;;;;;;;0.50;0.50;;;20.70;55.80;;;;;;4994421;28;20403;-72
2022/02/05 08:35:52;;;;;;;7.55;0.50;;;20.70;55.80;;;;;;5012586;28;20029;-72
2022/02/05 08:38:18;;;;;;;1.88;0.57;;;20.60;55.10;;;;;;4992558;28;20487;-73
2022/02/05 08:40:44;;;;;;;0.65;0.30;;;20.50;55.00;;;;;;4997946;28;20427;-73
2022/02/05 08:43:10;;;;;;;1.48;0.60;;;20.40;54.90;;;;;;5015437;28;20140;-73
2022/02/05 08:45:37;;;;;;;5.07;1.13;;;20.40;55.00;;;;;;5033234;28;20412;-72
2022/02/05 08:48:02;;;;;;;0.70;0.52;;;20.30;54.90;;;;;;5015683;28;20152;-72
2022/02/05 08:50:28;;;;;;;1.08;0.60;;;20.30;54.90;;;;;;5015757;28;20100;-73
2022/02/05 08:52:55;;;;;;;1.15;0.60;;;20.20;54.90;;;;;;5015043;28;20029;-72
2022/02/05 08:55:21;;;;;;;0.88;0.60;;;20.20;54.90;;;;;;5015507;28;20021;-72
2022/02/05 08:57:47;;;;;;;0.63;0.47;;;20.20;54.80;;;;;;5015284;28;20112;-73
2022/02/05 09:00:15;;;;;;;2.08;0.82;;;20.10;54.80;;;;;;5032698;28;20245;-73
2022/02/05 09:03:05;;;;;;;0.63;0.43;;;20.10;54.70;;;;;;5015047;28;20026;-72
2022/02/05 09:05:46;;;;;;;2.40;0.60;;;20.10;54.80;;;;;;5017887;28;20479;-72
2022/02/05 09:11:10;;;;;;;1.17;0.50;;;20.00;55.80;;;;;;5015901;28;20022;-72
2022/02/05 09:16:03;;;;;;;1.30;0.40;;;20.00;54.80;;;;;;5013805;28;20049;-73
2022/02/05 09:18:28;;;;;;;1.38;0.63;;;19.90;54.70;;;;;;4998436;28;20029;-72
2022/02/05 09:20:55;;;;;;;3.33;0.80;;;19.90;54.70;;;;;;5014154;28;20025;-73
2022/02/05 09:23:21;;;;;;;1.15;0.70;;;19.90;54.70;;;;;;5032328;28;20080;-75
2022/02/05 09:25:46;;;;;;;4.45;1.00;;;19.90;54.70;;;;;;5032030;28;20017;-70
2022/02/05 09:28:12;;;;;;;5.85;1.27;;;19.90;54.70;;;;;;5032122;28;20066;-70
2022/02/05 09:31:12;;;;;;;6.32;1.38;;;19.90;54.10;;;;;;5014299;28;20025;-71
2022/02/05 09:33:36;;;;;;;8.05;1.58;;;19.80;53.70;;;;;;5025991;28;20025;-71
2022/02/05 09:36:02;;;;;;;6.57;1.60;;;19.70;53.40;;;;;;5033039;28;20084;-71
2022/02/05 09:38:28;;;;;;;6.93;1.52;;;19.60;52.90;;;;;;5034105;28;20135;-71
2022/02/05 09:40:54;;;;;;;12.20;2.58;;;19.50;52.90;;;;;;5033728;28;20122;-71
2022/02/05 09:43:23;;;;;;;8.27;1.85;;;19.40;52.70;;;;;;5015902;28;20088;-71
2022/02/05 09:45:49;;;;;;;5.57;1.50;;;19.20;52.40;;;;;;5015585;28;20032;-71
2022/02/05 09:48:16;;;;;;;8.80;2.13;;;19.10;53.40;;;;;;5016871;28;20022;-71
2022/02/05 09:50:42;;;;;;;9.25;1.90;;;19.00;52.30;;;;;;4999011;28;20168;-71
2022/02/05 09:53:15;;;;;;;9.35;1.92;;;18.90;52.10;;;;;;5033451;28;20112;-71
2022/02/05 09:55:42;;;;;;;6.90;1.60;;;18.80;52.00;;;;;;5033549;28;20372;-71
2022/02/05 09:58:08;;;;;;;8.32;2.00;;;18.70;52.00;;;;;;4997576;28;20510;-71
2022/02/05 10:00:35;;;;;;;8.05;1.50;;;18.60;52.10;;;;;;5016034;28;20029;-71
2022/02/05 10:03:02;;;;;;;5.97;1.90;;;18.50;51.80;;;;;;5033339;28;20503;-71
2022/02/05 10:05:33;;;;;;;10.25;1.75;;;18.50;51.90;;;;;;5016546;28;20029;-71
2022/02/05 10:08:07;;;;;;;4.97;1.77;;;18.40;52.00;;;;;;5016615;28;20068;-71
2022/02/05 10:10:47;;;;;;;11.50;2.42;;;18.30;51.90;;;;;;4999972;28;20018;-71
2022/02/05 10:13:18;;;;;;;7.68;1.73;;;18.30;51.60;;;;;;5012447;28;20029;-71
2022/02/05 10:15:47;;;;;;;7.43;1.83;;;18.20;52.80;;;;;;5012290;28;20065;-71
2022/02/05 10:18:26;;;;;;;8.02;2.03;;;18.10;51.90;;;;;;5011723;28;20017;-71
2022/02/05 10:20:53;;;;;;;7.00;1.67;;;18.10;51.50;;;;;;5012998;28;20033;-71
2022/02/05 10:23:19;;;;;;;2.80;1.25;;;18.00;51.80;;;;;;5011537;28;20026;-71
2022/02/05 10:25:50;;;;;;;6.22;1.60;;;17.90;51.80;;;;;;5011673;28;20379;-71
2022/02/05 10:28:16;;;;;;;4.72;1.80;;;17.90;51.80;;;;;;5015839;28;20023;-71
2022/02/05 10:30:45;;;;;;;7.43;1.95;;;17.80;51.70;;;;;;5015309;28;20022;-71
2022/02/05 10:33:45;;;;;;;11.48;1.52;;;17.80;51.70;;;;;;5015241;28;20558;-71
2022/02/05 10:44:16;;;;;;;6.72;1.67;;;17.50;51.40;;;;;;5032680;28;20117;-71
2022/02/05 10:46:45;;;;;;;5.68;1.75;;;17.50;51.50;;;;;;5015330;28;20029;-71
2022/02/05 10:49:34;;;;;;;7.00;1.63;;;17.40;51.50;;;;;;5014971;28;20021;-71
2022/02/05 10:52:01;;;;;;;5.78;1.80;;;17.40;51.30;;;;;;5009335;28;20049;-71
2022/02/05 10:54:46;;;;;;;9.82;1.90;;;17.30;51.30;;;;;;5032502;28;20112;-71
2022/02/05 10:57:17;;;;;;;6.03;1.90;;;17.20;51.30;;;;;;5032624;28;20029;-71
2022/02/05 11:05:39;;;;;;;4.40;1.42;;;17.10;51.40;;;;;;5010887;28;20025;-70
2022/02/05 11:08:05;;;;;;;6.40;1.65;;;17.00;51.30;;;;;;5017102;28;20116;-70
2022/02/05 11:21:16;;;;;;;6.85;1.58;;;16.80;51.30;;;;;;4929383;29;20038;-71
2022/02/05 11:23:50;;;;;;;5.47;1.88;;;16.80;51.30;;;;;;4930083;29;20043;-71
2022/02/05 11:26:17;;;;;;;7.65;2.40;;;16.80;51.30;;;;;;4947134;29;20012;-71
2022/02/05 11:28:50;;;;;;;7.18;2.75;;;16.80;51.30;;;;;;4931171;29;20036;-71
2022/02/05 11:31:29;;;;;;;14.80;3.40;;;16.70;51.30;;;;;;4937172;29;20027;-71
2022/02/05 11:34:13;;;;;;;10.65;3.50;;;16.70;51.40;;;;;;4921961;29;20028;-75
2022/02/05 11:37:06;;;;;;;7.88;3.35;;;16.70;51.60;;;;;;4950942;29;20127;-75
2022/02/05 11:39:44;;;;;;;10.73;3.17;;;16.70;52.20;;;;;;4946339;29;20039;-77
2022/02/05 11:42:28;;;;;;;12.10;3.63;;;16.80;52.60;;;;;;4951066;29;20023;-75
2022/02/05 11:44:57;;;;;;;12.55;4.70;;;17.00;52.90;;;;;;4944430;29;20093;-76
2022/02/05 11:47:24;;;;;;;8.18;4.13;;;17.00;53.00;;;;;;4935740;29;20023;-75
2022/02/05 11:49:53;;;;;;;8.52;3.70;;;17.10;53.10;;;;;;4965564;28;20084;-77
2022/02/05 11:52:37;;;;;;;9.90;4.05;;;17.20;53.00;;;;;;5030955;28;20454;-75
2022/02/05 11:55:13;;;;;;;11.07;4.18;;;17.30;53.20;;;;;;5032125;28;20049;-77
2022/02/05 11:57:45;;;;;;;12.48;4.25;;;17.40;53.10;;;;;;4998118;28;20578;-74
2022/02/05 12:00:23;;;;;;;9.57;3.67;;;17.40;53.10;;;;;;5031824;28;20171;-76
2022/02/05 12:05:32;;;;;;;9.65;3.28;;;17.60;53.20;;;;;;5015055;28;20029;-77
2022/02/05 12:08:04;;;;;;;10.60;3.50;;;17.70;53.30;;;;;;4998532;28;20104;-77
2022/02/05 12:10:41;;;;;;;8.77;3.40;;;17.80;53.50;;;;;;5031408;28;20030;-75
2022/02/05 12:13:28;;;;;;;9.35;3.38;;;17.80;53.40;;;;;;5010573;28;20025;-75
2022/02/05 12:15:59;;;;;;;8.85;3.33;;;17.90;53.50;;;;;;5030083;28;20044;-75
2022/02/05 12:18:26;;;;;;;12.98;3.58;;;18.00;53.60;;;;;;5035133;28;20486;-75
2022/02/05 12:26:20;;;;;;;7.90;3.40;;;18.20;53.60;;;;;;5035122;28;20029;-75
2022/02/05 12:28:54;;;;;;;9.10;3.08;;;18.20;53.60;;;;;;5011708;28;20018;-78
2022/02/05 12:31:28;;;;;;;8.35;3.40;;;18.30;53.60;;;;;;5017781;28;20044;-75
2022/02/05 12:34:02;;;;;;;8.85;3.08;;;18.40;53.60;;;;;;5018029;28;20025;-75
2022/02/05 12:36:35;;;;;;;6.75;2.60;;;18.40;53.50;;;;;;5017192;28;20021;-77
2022/02/05 12:39:01;;;;;;;;;;;18.50;53.60;;;;;;5017702;28;20025;-76
2022/02/05 12:41:29;;;;;;;8.27;2.83;;;18.50;53.60;;;;;;5008333;28;19905;-75
2022/02/05 12:43:57;;;;;;;6.10;2.50;;;18.50;53.80;;;;;;5016733;28;20013;-79
2022/02/05 12:46:42;;;;;;;6.63;2.70;;;18.60;53.80;;;;;;5000062;28;20375;-75
2022/02/05 12:49:16;;;;;;;7.22;2.95;;;18.60;53.70;;;;;;5019787;28;20017;-78
2022/02/05 12:51:42;;;;;;;6.72;2.58;;;18.70;53.70;;;;;;5018748;28;20026;-72
2022/02/05 12:54:14;;;;;;;6.30;2.33;;;18.70;53.70;;;;;;5033953;28;20052;-75
2022/02/05 12:56:41;;;;;;;7.00;3.20;;;18.80;53.60;;;;;;5017193;28;20040;-74
2022/02/05 12:59:17;;;;;;;5.65;2.40;;;18.80;53.60;;;;;;4998145;28;20021;-74
2022/02/05 13:02:02;;;;;;;5.82;2.55;;;18.90;53.60;;;;;;5002282;28;20034;-74
2022/02/05 13:04:38;;;;;;;5.20;2.30;;;18.90;53.50;;;;;;5034618;28;20075;-71
2022/02/05 13:07:06;;;;;;;6.25;2.40;;;19.00;53.60;;;;;;5001527;28;20544;-67
2022/02/05 13:09:34;;;;;;;6.47;2.60;;;19.00;53.70;;;;;;5016482;28;20075;-68
2022/02/05 13:12:06;;;;;;;6.80;2.80;;;19.00;53.60;;;;;;5034770;28;20022;-67
2022/02/05 13:14:49;;;;;;;5.30;2.33;;;19.10;53.50;;;;;;5001103;28;20209;-68
2022/02/05 13:17:26;;;;;;;6.65;2.40;;;19.10;53.50;;;;;;5021671;28;20327;-67
2022/02/05 13:20:05;;;;;;;6.43;2.33;;;19.10;53.40;;;;;;5016556;28;20048;-67
2022/02/05 13:36:10;;;;;;;5.30;2.20;;;19.20;53.30;;;;;;5019135;28;20049;-67
2022/02/05 13:38:57;;;;;;;4.72;2.42;;;19.20;53.30;;;;;;5033612;28;20033;-67
2022/02/05 13:41:38;;;;;;;4.80;2.17;;;19.30;53.40;;;;;;5034515;28;20034;-68
2022/02/05 13:44:04;;;;;;;3.17;1.75;;;19.30;53.30;;;;;;5001854;28;20033;-67
2022/02/05 13:46:29;;;;;;;5.57;2.05;;;19.30;53.30;;;;;;5034066;28;20399;-67
2022/02/05 13:49:18;;;;;;;3.53;1.90;;;19.30;53.30;;;;;;5033903;28;20018;-67
2022/02/05 13:51:43;;;;;;;4.80;2.13;;;19.40;53.20;;;;;;5001037;28;20384;-68
2022/02/05 13:54:09;;;;;;;3.50;1.90;;;19.30;53.20;;;;;;5016616;28;20048;-68
2022/02/05 13:56:35;;;;;;;6.68;2.40;;;19.40;53.30;;;;;;5033887;28;20484;-67
2022/02/05 13:59:01;;;;;;;4.20;2.00;;;19.40;53.20;;;;;;5016332;28;20013;-67
2022/02/05 14:01:33;;;;;;;4.05;2.00;;;19.40;53.20;;;;;;5016429;28;20418;-67
2022/02/05 14:04:19;;;;;;;5.35;1.95;;;19.40;53.20;;;;;;5015912;28;20112;-67
2022/02/05 14:06:56;;;;;;;4.78;1.90;;;19.40;53.00;;;;;;5016055;28;20030;-68
2022/02/05 14:09:29;;;;;;;3.60;2.03;;;19.50;53.20;;;;;;5033984;28;20063;-67
2022/02/05 14:11:57;;;;;;;5.30;1.67;;;19.50;53.20;;;;;;5017324;28;20024;-68
2022/02/05 14:14:28;;;;;;;5.28;1.80;;;19.50;53.20;;;;;;5000134;28;20131;-68
2022/02/05 14:16:54;;;;;;;5.35;1.85;;;19.50;53.10;;;;;;4999503;28;20033;-68
2022/02/05 14:19:21;;;;;;;3.88;1.65;;;19.50;53.20;;;;;;5033586;28;20037;-67
2022/02/05 14:21:49;;;;;;;3.90;1.38;;;19.50;53.10;;;;;;4999776;28;20032;-67
2022/02/05 14:24:18;;;;;;;3.50;1.45;;;19.50;53.10;;;;;;5033410;28;20112;-68
2022/02/05 14:27:03;;;;;;;4.60;1.60;;;19.50;53.10;;;;;;5033547;28;20017;-67
2022/02/05 14:29:37;;;;;;;3.50;1.50;;;19.50;53.10;;;;;;5018455;28;20018;-67
2022/02/05 14:32:11;;;;;;;2.90;1.70;;;19.50;53.10;;;;;;5033169;28;20022;-67
2022/02/05 14:42:19;;;;;;;2.88;1.63;;;19.60;53.10;;;;;;5018042;28;20028;-68
2022/02/05 14:44:45;;;;;;;3.58;1.50;;;19.60;53.20;;;;;;5015735;28;20052;-67
2022/02/05 14:47:10;;;;;;;2.53;1.33;;;19.60;53.10;;;;;;4999015;28;20025;-67
2022/02/05 14:49:36;;;;;;;2.67;1.33;;;19.60;53.10;;;;;;5015628;28;20382;-67
2022/02/05 14:52:02;;;;;;;4.50;1.90;;;19.60;53.10;;;;;;4999106;28;20430;-67
2022/02/05 14:54:32;;;;;;;2.83;1.70;;;19.60;53.10;;;;;;5033264;28;20045;-68
2022/02/05 14:56:58;;;;;;;2.88;1.40;;;19.60;53.00;;;;;;5032612;28;20024;-68
2022/02/05 14:59:24;;;;;;;2.20;1.20;;;19.60;53.10;;;;;;5015244;28;20025;-68
2022/02/05 15:01:49;;;;;;;2.65;1.40;;;19.60;53.10;;;;;;5032540;28;20029;-68
2022/02/05 15:04:15;;;;;;;3.13;1.42;;;19.60;53.10;;;;;;5015125;28;20391;-67
2022/02/05 15:06:43;;;;;;;3.35;1.50;;;19.60;53.00;;;;;;4998620;28;20033;-68
2022/02/05 15:09:09;;;;;;;2.90;1.42;;;19.60;53.10;;;;;;5015828;28;20017;-68
2022/02/05 15:11:35;;;;;;;2.80;1.48;;;19.70;53.10;;;;;;5014933;28;20030;-68
2022/02/05 15:14:02;;;;;;;3.60;1.33;;;19.70;53.10;;;;;;5014738;28;20079;-67
2022/02/05 15:16:38;;;;;;;2.45;1.40;;;19.70;53.00;;;;;;5014771;28;20116;-68
2022/02/05 15:19:04;;;;;;;1.83;1.20;;;19.60;53.00;;;;;;5015432;28;20018;-68
2022/02/05 15:21:31;;;;;;;2.80;1.25;;;19.70;53.10;;;;;;5015118;28;20026;-68
2022/02/05 15:23:57;;;;;;;2.83;1.42;;;19.70;53.10;;;;;;5032442;28;20116;-67
2022/02/05 15:26:26;;;;;;;4.35;1.60;;;19.70;53.10;;;;;;5032465;28;20549;-67
2022/02/05 15:28:51;;;;;;;1.98;1.13;;;19.70;53.10;;;;;;5014670;28;20028;-67
2022/02/05 15:31:17;;;;;;;3.30;1.30;;;19.70;53.00;;;;;;5014687;28;20014;-67
2022/02/05 15:33:44;;;;;;;2.83;1.13;;;19.70;53.00;;;;;;4998360;28;20025;-68
2022/02/05 15:36:11;;;;;;;1.70;1.00;;;19.70;53.00;;;;;;5014726;28;20022;-67
2022/02/05 15:39:03;;;;;;;1.70;1.10;;;19.70;53.00;;;;;;5014810;28;20036;-67
2022/02/05 15:44:13;;;;;;;2.63;1.13;;;19.70;53.20;;;;;;5016958;28;20124;-67
2022/02/05 15:46:38;;;;;;;2.15;1.17;;;19.70;53.10;;;;;;5032067;28;20096;-67
2022/02/05 15:49:04;;;;;;;1.73;0.90;;;19.70;53.10;;;;;;5013053;28;20556;-67
2022/02/05 15:51:31;;;;;;;2.83;0.98;;;19.70;53.10;;;;;;5032401;28;20018;-67
2022/02/05 15:54:00;;;;;;;3.47;1.35;;;19.70;53.00;;;;;;5014540;28;20056;-67
2022/02/05 15:56:56;;;;;;;2.10;1.02;;;19.70;53.00;;;;;;5032273;28;20022;-68
2022/02/05 15:59:17;;;;;;;3.60;1.17;;;19.70;53.00;;;;;;4987939;28;20562;-68
2022/02/05 16:01:43;;;;;;;2.63;1.40;;;19.70;53.10;;;;;;5014942;28;20025;-67
2022/02/05 16:04:09;;;;;;;0.95;0.80;;;19.70;53.10;;;;;;5031938;28;20036;-68
2022/02/05 16:06:35;;;;;;;2.40;1.23;;;19.70;53.00;;;;;;5032003;28;20028;-67
2022/02/05 16:09:03;;;;;;;2.83;1.20;;;19.70;53.00;;;;;;5031403;28;20032;-67
2022/02/05 16:11:28;;;;;;;1.27;0.85;;;19.70;53.00;;;;;;5014557;28;20103;-68
2022/02/05 16:13:54;;;;;;;2.17;1.02;;;19.70;53.00;;;;;;5031270;28;20065;-67
2022/02/05 16:16:20;;;;;;;2.22;1.08;;;19.70;53.00;;;;;;5014044;28;20502;-67